Bayberry, New York
Current Conditions -  °F | °C
As of 6:17 PM on Thursday 27 Nov 2014 (Local Time) from KSYR Reporting Station
Light Snow Light Snow  
Wind Chill: 29°   Ceiling: 1000
Heat Index: 29°   Visibility: 2.5mi
Dew Point: 27°   Wind: 0mph
Humidity: 92%   Direction: NA
Pressure: 30.06"   Gusts: NA
Location:  43.1489°N, 76.2142°W
Report Text: KSYR 272317Z 00000KT 2 1/2SM -SN BR BKN010 BKN017 OVC039 M02/M03 A3006 RMK AO2 P0000 T10171028
Loading
Personal Weather Stations






























Interactive Weather Map New forecast layout! Learn more

10-Day Weather Forecast

Advertisements
Track Severe Weather on mobile